Time;durP1;ratioP1;P1;durP2;ratioP2;P2;SDS_P1;SDS_P2;PMS_P1;PMS_P2;Temp;Humidity;BMP_temperature;BMP_pressure;BME280_temperature;BME280_humidity;BME280_pressure;Samples;Min_cycle;Max_cycle;Signal;HPM_P1;HPM_P2
2023/04/18 00:00:01;;;;;;;11.67;9.60;;;7.20;99.90;;;;;;5078624;28;20516;-52
2023/04/18 00:02:28;;;;;;;10.70;9.30;;;7.10;99.90;;;;;;5078535;28;20432;-53
2023/04/18 00:04:55;;;;;;;14.53;10.53;;;7.10;99.90;;;;;;5078482;28;20464;-52
2023/04/18 00:07:22;;;;;;;10.80;9.03;;;7.00;99.90;;;;;;5078747;28;20467;-53
2023/04/18 00:09:51;;;;;;;14.80;9.30;;;6.90;99.90;;;;;;5078642;28;20465;-53
2023/04/18 00:12:19;;;;;;;13.87;10.47;;;6.90;99.90;;;;;;5077998;28;20770;-54
2023/04/18 00:14:49;;;;;;;14.00;10.30;;;6.90;99.90;;;;;;5078668;28;20515;-54
2023/04/18 00:17:16;;;;;;;13.53;10.93;;;6.80;99.90;;;;;;5078391;28;20512;-51
2023/04/18 00:19:43;;;;;;;16.87;10.77;;;6.80;99.90;;;;;;5077899;28;20784;-58
2023/04/18 00:22:11;;;;;;;13.40;11.00;;;6.80;99.90;;;;;;5077961;28;20484;-58
2023/04/18 00:24:39;;;;;;;12.20;10.80;;;6.80;99.90;;;;;;5078112;28;20507;-54
2023/04/18 00:27:08;;;;;;;12.93;11.50;;;6.80;99.90;;;;;;5077521;28;20497;-58
2023/04/18 00:29:35;;;;;;;13.07;11.10;;;6.70;1.00;;;;;;5078098;28;20460;-55
2023/04/18 00:32:02;;;;;;;14.57;12.10;;;6.70;1.00;;;;;;5077806;28;20489;-57
2023/04/18 00:34:29;;;;;;;14.07;11.90;;;6.70;1.00;;;;;;5078009;28;20461;-55
2023/04/18 00:36:56;;;;;;;15.23;12.37;;;6.70;1.00;;;;;;5077752;28;20465;-57
2023/04/18 00:39:23;;;;;;;14.20;11.63;;;6.70;1.00;;;;;;5077378;28;20903;-57
2023/04/18 00:41:50;;;;;;;17.50;13.50;;;6.60;1.00;;;;;;5077625;28;20457;-54
2023/04/18 00:44:19;;;;;;;17.07;13.10;;;6.60;1.00;;;;;;5077663;28;20432;-56
2023/04/18 00:46:47;;;;;;;16.43;13.60;;;6.60;1.00;;;;;;5077660;28;20464;-53
2023/04/18 00:49:14;;;;;;;15.83;12.70;;;6.60;15.50;;;;;;5077751;28;20515;-56
2023/04/18 00:51:41;;;;;;;15.27;13.37;;;6.60;80.90;;;;;;5077508;28;20937;-55
2023/04/18 00:54:11;;;;;;;16.63;14.83;;;6.50;75.10;;;;;;5077547;28;20798;-57
2023/04/18 00:56:39;;;;;;;14.77;13.00;;;6.50;99.90;;;;;;5077416;28;20471;-52
2023/04/18 00:59:07;;;;;;;16.93;14.93;;;6.50;99.90;;;;;;5077510;28;20468;-58
2023/04/18 01:01:39;;;;;;;13.90;12.43;;;6.40;99.90;;;;;;5077127;28;20782;-54
2023/04/18 01:04:06;;;;;;;15.53;13.90;;;6.40;99.90;;;;;;5077495;28;20472;-58
2023/04/18 01:06:33;;;;;;;16.20;13.60;;;6.30;99.90;;;;;;5077156;28;20464;-54
2023/04/18 01:09:01;;;;;;;17.17;13.57;;;6.30;99.90;;;;;;5077474;28;20488;-58
2023/04/18 01:11:28;;;;;;;14.30;12.33;;;6.30;99.90;;;;;;5077586;28;20559;-57
2023/04/18 01:14:00;;;;;;;14.20;12.27;;;6.20;99.90;;;;;;5076891;28;20466;-53
2023/04/18 01:16:31;;;;;;;15.80;12.40;;;6.20;99.90;;;;;;5077617;28;20465;-55
2023/04/18 01:19:00;;;;;;;16.13;13.60;;;6.20;99.90;;;;;;5077625;28;20564;-57
2023/04/18 01:21:29;;;;;;;15.70;12.10;;;6.20;99.90;;;;;;5077574;28;20461;-53
2023/04/18 01:24:02;;;;;;;15.00;13.40;;;6.10;99.90;;;;;;5076903;28;20444;-52
2023/04/18 01:26:30;;;;;;;13.50;12.20;;;6.20;99.90;;;;;;5076996;28;20878;-55
2023/04/18 01:28:58;;;;;;;16.77;13.50;;;6.10;99.90;;;;;;5077549;28;20458;-54
2023/04/18 01:31:25;;;;;;;14.70;13.10;;;6.10;99.90;;;;;;5077103;28;20462;-57
2023/04/18 01:33:52;;;;;;;14.90;12.63;;;6.10;99.90;;;;;;5076808;28;20467;-55
2023/04/18 01:36:19;;;;;;;14.43;13.03;;;6.00;99.90;;;;;;5077616;28;20468;-59
2023/04/18 01:38:46;;;;;;;17.43;13.80;;;6.00;99.90;;;;;;5077179;28;20461;-58
2023/04/18 01:41:14;;;;;;;16.37;12.47;;;5.90;99.90;;;;;;5077079;28;20759;-54
2023/04/18 01:43:42;;;;;;;13.87;12.37;;;5.90;99.90;;;;;;5076660;28;20541;-57
2023/04/18 01:46:09;;;;;;;24.17;12.63;;;5.90;99.90;;;;;;5076694;28;20483;-58
2023/04/18 01:48:36;;;;;;;14.33;12.27;;;5.90;99.90;;;;;;5077335;28;20436;-59
2023/04/18 01:51:04;;;;;;;13.13;11.83;;;5.80;99.90;;;;;;5077288;28;20465;-54
2023/04/18 01:53:31;;;;;;;13.73;12.33;;;5.80;99.90;;;;;;5076994;28;20562;-55
2023/04/18 01:55:58;;;;;;;15.00;13.20;;;5.70;99.90;;;;;;5076621;28;20461;-55
2023/04/18 01:58:25;;;;;;;15.10;12.80;;;5.70;1.00;;;;;;5077172;28;20465;-57
2023/04/18 02:00:56;;;;;;;17.20;13.27;;;5.70;1.00;;;;;;5076947;28;20457;-57
2023/04/18 02:03:23;;;;;;;14.30;12.80;;;5.60;1.00;;;;;;5077400;28;20519;-53
2023/04/18 02:05:51;;;;;;;14.33;11.93;;;5.60;1.00;;;;;;5076442;28;20472;-53
2023/04/18 02:08:18;;;;;;;13.43;12.03;;;5.60;1.00;;;;;;5076660;28;20456;-55
2023/04/18 02:10:45;;;;;;;16.67;14.00;;;5.60;1.00;;;;;;5079188;28;20556;-55
2023/04/18 02:13:13;;;;;;;15.10;12.70;;;5.50;1.00;;;;;;5080742;28;20484;-52
2023/04/18 02:15:41;;;;;;;16.30;12.43;;;5.50;1.00;;;;;;5080348;28;20904;-57
2023/04/18 02:18:10;;;;;;;14.20;12.43;;;5.50;1.00;;;;;;5080548;28;20460;-56
2023/04/18 02:20:38;;;;;;;16.17;13.00;;;5.40;1.00;;;;;;5080299;28;20471;-58
2023/04/18 02:23:05;;;;;;;14.27;11.20;;;5.30;1.00;;;;;;5080912;28;20849;-54
2023/04/18 02:25:33;;;;;;;18.90;12.57;;;5.30;1.00;;;;;;5080696;28;20450;-59
2023/04/18 02:28:00;;;;;;;12.57;11.10;;;5.30;1.00;;;;;;5080109;28;20587;-57
2023/04/18 02:30:27;;;;;;;14.50;11.83;;;5.30;1.00;;;;;;5079769;28;20450;-56
2023/04/18 02:32:56;;;;;;;15.23;11.53;;;5.30;1.00;;;;;;5080191;28;20489;-58
2023/04/18 02:35:26;;;;;;;14.43;12.20;;;5.20;1.00;;;;;;5080406;28;20440;-54
2023/04/18 02:37:53;;;;;;;13.57;11.97;;;5.30;1.00;;;;;;5080103;28;20472;-56
2023/04/18 02:40:20;;;;;;;14.07;12.57;;;5.20;1.00;;;;;;5080187;28;20468;-59
2023/04/18 02:42:47;;;;;;;14.90;12.27;;;5.20;1.00;;;;;;5080142;28;20515;-58
2023/04/18 02:45:15;;;;;;;14.97;13.00;;;5.10;1.00;;;;;;5080470;28;20552;-56
2023/04/18 02:47:44;;;;;;;14.80;12.37;;;5.10;84.40;;;;;;5079577;28;20461;-53
2023/04/18 02:50:11;;;;;;;14.00;12.57;;;5.10;85.70;;;;;;5079993;28;20475;-56
2023/04/18 02:52:40;;;;;;;16.00;13.20;;;5.10;99.90;;;;;;5079624;28;20493;-56
2023/04/18 02:55:07;;;;;;;15.17;13.43;;;5.00;99.90;;;;;;5080108;28;20465;-57
2023/04/18 02:57:35;;;;;;;16.83;13.30;;;5.00;99.90;;;;;;5080132;28;20909;-57
2023/04/18 03:00:03;;;;;;;16.03;12.90;;;5.00;99.90;;;;;;5079615;28;20461;-57
2023/04/18 03:02:30;;;;;;;14.43;12.30;;;5.10;99.90;;;;;;5079689;28;20461;-58
2023/04/18 03:04:57;;;;;;;14.17;12.37;;;5.10;99.90;;;;;;5079730;28;20564;-55
2023/04/18 03:07:24;;;;;;;13.90;12.33;;;5.10;99.90;;;;;;5079862;28;20461;-56
2023/04/18 03:09:53;;;;;;;15.60;12.90;;;5.10;99.90;;;;;;5079507;28;20465;-54
2023/04/18 03:12:20;;;;;;;15.80;13.57;;;5.00;99.90;;;;;;5079183;28;20490;-56
2023/04/18 03:14:47;;;;;;;15.33;12.70;;;5.00;99.90;;;;;;5079538;28;20564;-53
2023/04/18 03:17:14;;;;;;;16.10;13.20;;;5.00;99.90;;;;;;5078828;28;20467;-57
2023/04/18 03:19:45;;;;;;;18.33;14.70;;;5.00;99.90;;;;;;5078924;28;20475;-57
2023/04/18 03:22:12;;;;;;;15.33;13.33;;;5.00;99.90;;;;;;5078639;28;20461;-58
2023/04/18 03:24:43;;;;;;;15.20;13.20;;;5.00;99.90;;;;;;5079598;28;20544;-59
2023/04/18 03:27:12;;;;;;;16.63;13.63;;;5.00;99.90;;;;;;5079275;28;20488;-56
2023/04/18 03:29:40;;;;;;;18.53;14.93;;;5.00;99.90;;;;;;5078719;28;20500;-57
2023/04/18 03:32:07;;;;;;;17.10;14.80;;;5.00;1.00;;;;;;5078593;28;20842;-58
2023/04/18 03:34:34;;;;;;;17.17;15.07;;;5.00;1.00;;;;;;5078997;28;20905;-55
2023/04/18 03:37:01;;;;;;;15.90;14.20;;;5.00;1.00;;;;;;5079368;28;20461;-55
2023/04/18 03:39:28;;;;;;;17.10;14.90;;;5.00;1.00;;;;;;5079147;28;20460;-58
2023/04/18 03:41:55;;;;;;;15.70;14.00;;;5.00;1.00;;;;;;5078852;28;20462;-58
2023/04/18 03:44:24;;;;;;;16.40;14.70;;;5.10;1.00;;;;;;5078664;28;20460;-58
2023/04/18 03:46:51;;;;;;;16.97;14.00;;;5.10;1.00;;;;;;5079188;28;20561;-58
2023/04/18 03:49:18;;;;;;;15.57;13.90;;;5.20;1.00;;;;;;5078761;28;20461;-56
2023/04/18 03:51:47;;;;;;;18.87;14.90;;;5.20;99.90;;;;;;5078626;28;20465;-57
2023/04/18 03:54:14;;;;;;;18.60;14.00;;;5.10;1.00;;;;;;5078644;28;20493;-57
2023/04/18 03:56:41;;;;;;;18.77;14.80;;;5.20;1.00;;;;;;5078860;28;20462;-59
2023/04/18 03:59:08;;;;;;;17.03;13.93;;;5.10;99.90;;;;;;5078876;28;20462;-56
2023/04/18 04:01:37;;;;;;;15.07;13.47;;;5.20;99.90;;;;;;5078111;28;20468;-59
2023/04/18 04:04:04;;;;;;;17.07;14.53;;;5.20;1.00;;;;;;5077990;28;20461;-58
2023/04/18 04:06:31;;;;;;;17.33;14.70;;;5.20;1.00;;;;;;5077027;28;20496;-56
2023/04/18 04:08:59;;;;;;;15.40;13.80;;;5.30;99.90;;;;;;5077204;28;20772;-56
2023/04/18 04:11:27;;;;;;;17.03;14.10;;;5.30;99.90;;;;;;5075747;28;20754;-56
2023/04/18 04:13:54;;;;;;;15.90;13.63;;;5.30;99.90;;;;;;5076884;28;20497;-57
2023/04/18 04:16:21;;;;;;;16.40;14.30;;;5.30;99.90;;;;;;5077305;28;20468;-59
2023/04/18 04:18:49;;;;;;;16.40;14.30;;;5.30;99.90;;;;;;5076131;28;20471;-59
2023/04/18 04:21:16;;;;;;;16.23;14.40;;;5.30;99.90;;;;;;5077230;28;20495;-59
2023/04/18 04:23:45;;;;;;;15.57;13.97;;;5.30;99.90;;;;;;5076404;28;20468;-56
2023/04/18 04:26:13;;;;;;;15.80;14.10;;;5.30;99.90;;;;;;5077715;28;20519;-58
2023/04/18 04:28:41;;;;;;;17.23;14.23;;;5.30;99.90;;;;;;5037389;28;20509;-59
2023/04/18 04:31:09;;;;;;;15.50;13.20;;;5.40;99.90;;;;;;5035923;28;20811;-57
2023/04/18 04:33:37;;;;;;;16.70;14.60;;;5.40;99.90;;;;;;5035439;28;20490;-57
2023/04/18 04:36:07;;;;;;;17.17;14.20;;;5.40;99.90;;;;;;5033335;28;20433;-59
2023/04/18 04:38:43;;;;;;;17.17;13.03;;;5.40;99.90;;;;;;5036616;28;20441;-59
2023/04/18 04:41:10;;;;;;;18.40;14.33;;;5.50;99.90;;;;;;5035142;28;20455;-59
2023/04/18 04:43:40;;;;;;;16.60;14.80;;;5.50;76.00;;;;;;5036182;28;20467;-57
2023/04/18 04:46:07;;;;;;;16.17;14.50;;;5.60;15.00;;;;;;5034650;28;20521;-58
2023/04/18 04:48:34;;;;;;;15.80;13.40;;;5.50;1.00;;;;;;5037027;28;20474;-54
2023/04/18 04:51:01;;;;;;;15.77;13.93;;;5.50;1.00;;;;;;5036610;28;20462;-57
2023/04/18 04:53:30;;;;;;;15.07;13.47;;;5.50;1.00;;;;;;5037571;28;20490;-57
2023/04/18 04:55:58;;;;;;;16.17;13.73;;;5.50;1.00;;;;;;5037564;28;20469;-58
2023/04/18 04:58:25;;;;;;;16.33;14.23;;;5.50;1.00;;;;;;5037566;28;20490;-56
2023/04/18 05:00:52;;;;;;;18.43;16.07;;;5.50;1.00;;;;;;5036342;28;20469;-58
2023/04/18 05:03:19;;;;;;;16.30;13.70;;;5.60;1.00;;;;;;5037105;28;20950;-57
2023/04/18 05:05:47;;;;;;;17.73;15.57;;;5.60;1.00;;;;;;5036994;28;20495;-57
2023/04/18 05:08:14;;;;;;;16.53;14.77;;;5.70;1.00;;;;;;5037655;28;20467;-52
2023/04/18 05:10:44;;;;;;;17.60;15.70;;;5.70;99.90;;;;;;5037132;28;20466;-58
2023/04/18 05:13:11;;;;;;;16.03;14.23;;;5.70;99.90;;;;;;5037240;28;20947;-57
2023/04/18 05:15:41;;;;;;;16.30;14.57;;;5.80;99.90;;;;;;5036625;28;20466;-57
2023/04/18 05:18:08;;;;;;;22.70;16.17;;;5.80;99.90;;;;;;5037091;28;20513;-57
2023/04/18 05:20:35;;;;;;;16.63;14.83;;;5.80;99.90;;;;;;5022050;28;20476;-55
2023/04/18 05:23:03;;;;;;;20.60;13.93;;;5.80;99.90;;;;;;5017712;28;20460;-57
2023/04/18 05:25:30;;;;;;;17.13;14.50;;;5.80;99.90;;;;;;5034376;28;20504;-54
2023/04/18 05:28:03;;;;;;;17.20;14.47;;;5.80;99.90;;;;;;5065055;28;20484;-55
2023/04/18 05:30:30;;;;;;;17.33;14.67;;;5.80;99.90;;;;;;5075725;28;20562;-56
2023/04/18 05:32:57;;;;;;;19.93;15.27;;;5.80;99.90;;;;;;5073550;28;20836;-56
2023/04/18 05:35:24;;;;;;;16.37;14.70;;;5.80;99.90;;;;;;5075130;28;20463;-58
2023/04/18 05:37:51;;;;;;;20.23;16.03;;;5.90;99.90;;;;;;5075099;28;20483;-56
2023/04/18 05:40:18;;;;;;;17.70;15.53;;;6.00;99.90;;;;;;5074499;28;20465;-57
2023/04/18 05:42:46;;;;;;;16.50;14.63;;;6.00;97.60;;;;;;5074918;28;20552;-57
2023/04/18 05:45:14;;;;;;;19.10;15.27;;;6.10;69.10;;;;;;5078907;28;20755;-50
2023/04/18 05:47:41;;;;;;;16.97;15.10;;;6.10;46.20;;;;;;5079197;28;20593;-58
2023/04/18 05:50:09;;;;;;;17.70;15.20;;;6.10;17.80;;;;;;5081025;28;20464;-56
2023/04/18 05:52:37;;;;;;;26.50;14.87;;;6.20;5.50;;;;;;5081266;28;20465;-58
2023/04/18 05:55:04;;;;;;;16.40;14.70;;;6.20;3.80;;;;;;5079665;28;20933;-56
2023/04/18 05:57:32;;;;;;;14.20;12.77;;;6.10;1.00;;;;;;5079556;28;20467;-56
2023/04/18 05:59:59;;;;;;;14.13;12.73;;;6.10;1.00;;;;;;5078057;28;20467;-57
2023/04/18 06:02:27;;;;;;;13.70;12.13;;;6.00;11.20;;;;;;5080170;28;20461;-53
2023/04/18 06:04:55;;;;;;;13.80;12.40;;;6.10;21.20;;;;;;5080667;28;20448;-56
2023/04/18 06:07:23;;;;;;;16.93;12.20;;;6.00;21.80;;;;;;5080089;28;20464;-55
2023/04/18 06:09:52;;;;;;;14.43;12.97;;;6.00;29.40;;;;;;5079610;28;20749;-53
2023/04/18 06:12:20;;;;;;;15.97;13.77;;;6.10;63.60;;;;;;5079027;28;20461;-55
2023/04/18 06:14:47;;;;;;;15.40;13.70;;;6.10;89.70;;;;;;5078705;28;20597;-51
2023/04/18 06:17:14;;;;;;;14.53;12.57;;;6.30;99.90;;;;;;5078669;28;20510;-54
2023/04/18 06:19:43;;;;;;;15.20;13.67;;;6.40;29.50;;;;;;5078703;28;20552;-56
2023/04/18 06:22:10;;;;;;;13.70;12.20;;;6.50;9.40;;;;;;5079043;28;20460;-54
2023/04/18 06:24:37;;;;;;;15.10;13.50;;;6.70;1.00;;;;;;5078860;28;20514;-57
2023/04/18 06:27:05;;;;;;;13.37;12.07;;;6.80;1.00;;;;;;5079630;28;20463;-52
2023/04/18 06:29:33;;;;;;;14.30;12.83;;;6.80;1.00;;;;;;5078383;28;20464;-54
2023/04/18 06:32:00;;;;;;;16.00;14.30;;;7.00;1.00;;;;;;5078773;28;20837;-55
2023/04/18 06:34:27;;;;;;;15.83;13.50;;;7.00;1.00;;;;;;5078607;28;20489;-54
2023/04/18 06:36:56;;;;;;;14.00;12.53;;;7.00;1.00;;;;;;5078796;28;20545;-56
2023/04/18 06:39:23;;;;;;;14.20;11.87;;;7.00;1.00;;;;;;5077882;28;20497;-54
2023/04/18 06:41:50;;;;;;;16.90;13.57;;;7.00;1.00;;;;;;5078552;28;20980;-54
2023/04/18 06:44:17;;;;;;;14.50;13.00;;;7.00;1.00;;;;;;5079373;28;20457;-53
2023/04/18 06:46:45;;;;;;;12.20;10.90;;;7.10;1.00;;;;;;5079480;28;20461;-56
2023/04/18 06:49:12;;;;;;;13.27;11.90;;;7.10;1.00;;;;;;5080016;28;20812;-56
2023/04/18 06:51:39;;;;;;;16.47;13.40;;;7.00;1.00;;;;;;5080155;28;20461;-53
2023/04/18 06:54:07;;;;;;;14.37;12.93;;;7.10;1.00;;;;;;5079756;28;21005;-58
2023/04/18 06:56:35;;;;;;;13.20;11.90;;;7.20;1.00;;;;;;5078796;28;20552;-57
2023/04/18 06:59:02;;;;;;;13.00;11.70;;;7.10;1.00;;;;;;5079686;28;20802;-57
2023/04/18 07:01:31;;;;;;;14.87;13.37;;;7.20;1.00;;;;;;5063270;28;20480;-56
2023/04/18 07:03:59;;;;;;;13.40;12.00;;;7.20;1.00;;;;;;5059858;28;20465;-51
2023/04/18 07:06:26;;;;;;;13.20;11.90;;;7.30;1.00;;;;;;5059949;28;20876;-56
2023/04/18 07:08:58;;;;;;;13.30;11.80;;;7.40;1.00;;;;;;5058846;28;20509;-57
2023/04/18 07:11:27;;;;;;;13.80;12.50;;;7.60;1.00;;;;;;5059841;28;20880;-55
2023/04/18 07:13:54;;;;;;;15.63;13.80;;;7.50;1.00;;;;;;5059397;28;20584;-59
2023/04/18 07:16:22;;;;;;;14.57;13.17;;;7.60;1.00;;;;;;5059394;28;20541;-58
2023/04/18 07:18:50;;;;;;;14.90;13.43;;;7.60;1.00;;;;;;5059163;28;20557;-56
2023/04/18 07:21:18;;;;;;;16.57;14.87;;;7.60;1.00;;;;;;5058079;28;20894;-59
2023/04/18 07:23:46;;;;;;;16.37;13.53;;;7.60;1.00;;;;;;5058000;28;20527;-60
2023/04/18 07:26:13;;;;;;;16.07;14.43;;;7.60;1.00;;;;;;5057845;28;20463;-59
2023/04/18 07:28:41;;;;;;;15.77;14.27;;;7.60;1.00;;;;;;5057883;28;20804;-58
2023/04/18 07:31:10;;;;;;;15.70;13.90;;;7.70;1.00;;;;;;5057944;28;20923;-57
2023/04/18 07:33:37;;;;;;;15.87;14.37;;;7.90;1.00;;;;;;5059731;28;20805;-60
2023/04/18 07:36:05;;;;;;;15.73;13.63;;;7.90;1.00;;;;;;5078660;28;20878;-57
2023/04/18 07:38:34;;;;;;;20.13;15.13;;;8.00;1.00;;;;;;5079112;28;20504;-57
2023/04/18 07:41:02;;;;;;;16.00;14.20;;;7.90;1.00;;;;;;5078221;28;20462;-56
2023/04/18 07:43:29;;;;;;;17.63;14.93;;;8.10;1.00;;;;;;5078673;28;20937;-56
2023/04/18 07:45:58;;;;;;;16.30;14.47;;;8.30;1.00;;;;;;5077847;28;20461;-58
2023/04/18 07:48:25;;;;;;;16.40;14.57;;;8.50;1.00;;;;;;5079002;28;20469;-60
2023/04/18 07:50:53;;;;;;;15.23;13.60;;;8.50;99.90;;;;;;5078382;28;20468;-60
2023/04/18 07:53:22;;;;;;;16.30;14.67;;;8.40;99.90;;;;;;5078456;28;20461;-57
2023/04/18 07:55:50;;;;;;;18.17;14.50;;;8.50;99.90;;;;;;5077857;28;20916;-59
2023/04/18 07:58:17;;;;;;;15.37;13.00;;;8.60;99.90;;;;;;5078586;28;20461;-60
2023/04/18 08:00:45;;;;;;;14.83;13.33;;;8.70;99.90;;;;;;5078207;28;20463;-58
2023/04/18 08:03:13;;;;;;;15.73;14.07;;;8.70;99.90;;;;;;5078462;28;20465;-57
2023/04/18 08:05:41;;;;;;;16.53;13.93;;;8.80;99.90;;;;;;5078957;28;20882;-59
2023/04/18 08:08:10;;;;;;;18.03;14.70;;;8.70;99.90;;;;;;5078001;28;20463;-58
2023/04/18 08:10:37;;;;;;;15.70;13.27;;;8.70;99.90;;;;;;5078391;28;20518;-57
2023/04/18 08:13:05;;;;;;;16.83;14.07;;;8.70;99.90;;;;;;5077814;28;20511;-54
2023/04/18 08:15:32;;;;;;;15.80;14.10;;;8.60;99.90;;;;;;5078202;28;20856;-54
2023/04/18 08:18:00;;;;;;;15.37;12.80;;;8.60;99.90;;;;;;5078300;28;20504;-55
2023/04/18 08:20:28;;;;;;;16.43;14.40;;;8.60;99.90;;;;;;5078272;28;20472;-55
2023/04/18 08:22:55;;;;;;;17.07;15.23;;;8.60;99.90;;;;;;5059291;28;20777;-59
2023/04/18 08:25:23;;;;;;;17.87;14.50;;;8.60;99.90;;;;;;5058059;28;20458;-53
2023/04/18 08:27:50;;;;;;;17.23;14.50;;;8.60;99.90;;;;;;5071109;28;20488;-53
2023/04/18 08:30:20;;;;;;;18.60;15.07;;;8.60;99.90;;;;;;5076843;28;20471;-57
2023/04/18 08:32:48;;;;;;;15.60;14.00;;;8.60;99.90;;;;;;5075887;28;20465;-58
2023/04/18 08:35:15;;;;;;;15.73;14.07;;;8.70;99.90;;;;;;5076256;28;20474;-56
2023/04/18 08:37:44;;;;;;;16.77;14.80;;;8.60;99.90;;;;;;5076285;28;20737;-55
2023/04/18 08:40:11;;;;;;;17.13;14.77;;;8.50;99.90;;;;;;5076205;28;20470;-57
2023/04/18 08:42:39;;;;;;;16.43;14.50;;;8.50;99.90;;;;;;5075963;28;20461;-57
2023/04/18 08:45:08;;;;;;;16.23;13.67;;;8.40;99.90;;;;;;5075634;28;20463;-57
2023/04/18 08:47:35;;;;;;;16.93;15.07;;;8.50;99.90;;;;;;5075486;28;20474;-56
2023/04/18 08:50:03;;;;;;;24.50;15.10;;;8.40;99.90;;;;;;5077040;28;20473;-51
2023/04/18 08:52:33;;;;;;;16.90;14.57;;;8.30;99.90;;;;;;5075465;28;20461;-56
2023/04/18 08:55:02;;;;;;;19.90;15.43;;;8.40;99.90;;;;;;5076576;28;20576;-57
2023/04/18 08:57:30;;;;;;;18.17;15.67;;;8.50;99.90;;;;;;5077753;28;20861;-57
2023/04/18 08:59:59;;;;;;;18.50;16.57;;;8.60;99.90;;;;;;5075438;28;20473;-57
2023/04/18 09:02:41;;;;;;;17.10;15.10;;;8.70;99.90;;;;;;5076633;28;20461;-57
2023/04/18 09:05:12;;;;;;;19.57;15.70;;;8.60;99.90;;;;;;5057374;28;20458;-58
2023/04/18 09:07:40;;;;;;;21.23;15.97;;;8.60;99.90;;;;;;5057836;28;20949;-52
2023/04/18 09:10:10;;;;;;;18.20;15.80;;;8.50;99.90;;;;;;5057220;28;20537;-51
2023/04/18 09:12:48;;;;;;;22.13;16.53;;;8.60;99.90;;;;;;5056945;28;20819;-54
2023/04/18 09:15:19;;;;;;;19.00;15.50;;;8.60;99.90;;;;;;5067577;28;20500;-54
2023/04/18 09:17:49;;;;;;;23.60;17.23;;;8.70;99.90;;;;;;5076325;28;20469;-55
2023/04/18 09:20:29;;;;;;;21.03;16.70;;;8.70;99.90;;;;;;5076692;28;20500;-58
2023/04/18 09:22:59;;;;;;;18.73;16.73;;;8.70;99.90;;;;;;5076894;28;20457;-59
2023/04/18 09:25:33;;;;;;;17.10;14.63;;;8.80;99.90;;;;;;5074898;28;20523;-54
2023/04/18 09:28:01;;;;;;;17.40;15.10;;;8.70;99.90;;;;;;5071857;28;20631;-56
2023/04/18 09:30:32;;;;;;;17.53;14.67;;;8.70;99.90;;;;;;5076182;28;20820;-58
2023/04/18 09:33:00;;;;;;;23.03;16.30;;;8.80;99.90;;;;;;5076858;28;20806;-59
2023/04/18 09:35:28;;;;;;;18.93;14.90;;;8.80;99.90;;;;;;5076752;28;20929;-59
2023/04/18 09:37:55;;;;;;;17.90;15.23;;;8.90;99.90;;;;;;5077290;28;20939;-59
2023/04/18 09:40:23;;;;;;;16.83;15.03;;;8.90;99.90;;;;;;5076671;28;20462;-59
2023/04/18 09:42:54;;;;;;;17.43;14.03;;;9.10;99.90;;;;;;5074496;28;20469;-59
2023/04/18 09:45:21;;;;;;;16.77;14.07;;;9.30;99.90;;;;;;5059464;28;20442;-59
2023/04/18 09:47:49;;;;;;;16.73;14.07;;;9.70;99.90;;;;;;5062924;28;20476;-58
2023/04/18 09:50:17;;;;;;;19.53;14.67;;;9.90;99.90;;;;;;5057131;28;20486;-58
2023/04/18 09:52:45;;;;;;;16.97;14.50;;;10.00;99.90;;;;;;5056580;28;20540;-59
2023/04/18 09:55:14;;;;;;;17.00;14.03;;;10.00;99.90;;;;;;5075484;28;20960;-59
2023/04/18 09:57:44;;;;;;;18.07;14.50;;;9.80;99.90;;;;;;5076123;28;20767;-59
2023/04/18 10:00:19;;;;;;;17.57;14.20;;;10.00;99.90;;;;;;5077173;28;20967;-59
2023/04/18 10:02:56;;;;;;;15.33;13.73;;;10.20;99.90;;;;;;5072984;28;20515;-57
2023/04/18 10:05:26;;;;;;;20.03;13.60;;;10.40;99.90;;;;;;5076112;28;20548;-58
2023/04/18 10:07:55;;;;;;;17.30;14.57;;;10.50;99.90;;;;;;5075490;28;20489;-60
2023/04/18 10:10:22;;;;;;;16.90;15.00;;;10.50;99.90;;;;;;5074636;28;20518;-58
2023/04/18 10:12:53;;;;;;;16.63;14.73;;;10.50;99.90;;;;;;5074901;28;20565;-60
2023/04/18 10:15:23;;;;;;;23.60;14.93;;;10.20;99.90;;;;;;5073929;28;20486;-60
2023/04/18 10:17:55;;;;;;;16.40;14.10;;;10.30;99.90;;;;;;5074433;28;20461;-59
2023/04/18 10:20:24;;;;;;;17.60;14.80;;;10.30;99.90;;;;;;5074375;28;20488;-58
2023/04/18 10:22:52;;;;;;;16.60;14.77;;;10.10;99.90;;;;;;5060596;28;20509;-60
2023/04/18 10:25:48;;;;;;;19.87;15.97;;;10.30;99.90;;;;;;5054387;28;20433;-61
2023/04/18 10:28:15;;;;;;;19.20;15.20;;;10.30;99.90;;;;;;5055051;28;20948;-57
2023/04/18 10:30:55;;;;;;;16.87;15.17;;;10.30;99.90;;;;;;5094892;28;20467;-59
2023/04/18 10:33:26;;;;;;;17.90;14.93;;;10.40;99.90;;;;;;5097400;28;20460;-57
2023/04/18 10:35:57;;;;;;;18.90;16.90;;;10.70;99.90;;;;;;5097661;28;20770;-58
2023/04/18 10:38:25;;;;;;;15.80;13.80;;;10.80;99.90;;;;;;5098777;28;20528;-59
2023/04/18 10:40:52;;;;;;;17.00;14.70;;;11.40;99.90;;;;;;5089272;28;20443;-59
2023/04/18 10:43:19;;;;;;;17.30;13.93;;;11.80;99.90;;;;;;5076139;28;20774;-61
2023/04/18 10:46:11;;;;;;;17.50;15.60;;;12.10;99.90;;;;;;5075978;28;20845;-62
2023/04/18 10:48:38;;;;;;;16.47;14.60;;;12.00;99.90;;;;;;5077169;28;20461;-61
2023/04/18 10:51:16;;;;;;;16.07;14.37;;;11.50;99.90;;;;;;5077566;28;20467;-61
2023/04/18 10:53:46;;;;;;;16.60;14.10;;;11.60;99.90;;;;;;5077401;28;20692;-62
2023/04/18 10:56:15;;;;;;;18.47;13.00;;;12.10;99.90;;;;;;5077398;28;20489;-62
2023/04/18 10:58:47;;;;;;;15.50;13.73;;;12.10;99.90;;;;;;5077255;28;20461;-61
2023/04/18 11:01:25;;;;;;;16.20;14.60;;;12.30;99.90;;;;;;5077523;28;20461;-61
2023/04/18 11:03:53;;;;;;;16.43;14.77;;;12.50;99.90;;;;;;5077852;28;20461;-59
2023/04/18 11:06:21;;;;;;;20.33;13.73;;;12.70;99.90;;;;;;5077607;28;20445;-59
2023/04/18 11:08:48;;;;;;;15.47;12.60;;;13.50;99.90;;;;;;5077437;28;20469;-60
2023/04/18 11:11:16;;;;;;;15.40;13.80;;;14.50;99.90;;;;;;5078297;28;20470;-61
2023/04/18 11:13:56;;;;;;;18.30;14.50;;;15.10;99.90;;;;;;5077512;28;20794;-59
2023/04/18 11:16:28;;;;;;;15.00;13.07;;;15.90;99.90;;;;;;5076860;28;20491;-61
2023/04/18 11:18:56;;;;;;;14.67;13.13;;;16.40;99.90;;;;;;5076808;28;20759;-60
2023/04/18 11:21:26;;;;;;;14.97;13.47;;;16.80;99.90;;;;;;5075948;28;20484;-60
2023/04/18 11:23:53;;;;;;;15.60;14.10;;;16.80;99.90;;;;;;5062783;28;20740;-60
2023/04/18 11:26:23;;;;;;;15.03;13.53;;;16.60;99.90;;;;;;5076761;28;20453;-60
2023/04/18 11:28:52;;;;;;;14.40;13.10;;;16.50;99.90;;;;;;5076597;28;20457;-60
2023/04/18 11:31:23;;;;;;;18.23;15.47;;;16.70;99.90;;;;;;5077317;28;20759;-60
2023/04/18 11:33:51;;;;;;;14.70;13.30;;;16.60;99.90;;;;;;5077580;28;20428;-58
2023/04/18 11:36:19;;;;;;;15.47;13.90;;;16.80;99.90;;;;;;5076878;28;20801;-60
2023/04/18 11:38:46;;;;;;;14.60;13.13;;;17.30;99.90;;;;;;5078136;28;20470;-58
2023/04/18 11:41:14;;;;;;;13.70;12.43;;;17.10;99.90;;;;;;5080653;28;20552;-60
2023/04/18 11:43:44;;;;;;;16.70;12.70;;;17.20;99.90;;;;;;5077922;28;20506;-60
2023/04/18 11:46:12;;;;;;;15.07;13.50;;;17.50;99.90;;;;;;5078379;28;20758;-59
2023/04/18 11:48:40;;;;;;;14.60;13.27;;;18.00;99.90;;;;;;5077314;28;20461;-60
2023/04/18 11:51:32;;;;;;;15.23;13.83;;;18.20;99.90;;;;;;5077775;28;20457;-60
2023/04/18 11:54:00;;;;;;;15.80;14.20;;;18.50;99.90;;;;;;5077369;28;20878;-60
2023/04/18 11:56:27;;;;;;;15.37;13.77;;;18.80;99.90;;;;;;5076388;28;20554;-60
2023/04/18 11:58:54;;;;;;;14.60;13.30;;;19.10;99.90;;;;;;5075881;28;20461;-60
2023/04/18 12:01:23;;;;;;;15.77;14.03;;;18.90;99.90;;;;;;5076924;28;20465;-59
2023/04/18 12:04:04;;;;;;;15.03;13.53;;;18.80;99.90;;;;;;5075867;28;20515;-60
2023/04/18 12:06:48;;;;;;;15.20;13.80;;;18.60;99.90;;;;;;5074618;28;20461;-62
2023/04/18 12:09:15;;;;;;;15.80;14.30;;;18.90;99.90;;;;;;5056572;28;20461;-61
2023/04/18 12:11:42;;;;;;;14.47;13.17;;;18.80;99.90;;;;;;5056266;28;20462;-61
2023/04/18 12:14:21;;;;;;;15.53;14.13;;;19.10;99.90;;;;;;5056624;28;20553;-60
2023/04/18 12:16:49;;;;;;;15.27;13.70;;;19.40;99.90;;;;;;5056371;28;20551;-60
2023/04/18 12:19:16;;;;;;;14.60;13.10;;;19.40;99.90;;;;;;5071079;28;20449;-61
2023/04/18 12:21:59;;;;;;;15.60;14.10;;;19.10;99.90;;;;;;5077999;28;20568;-61
2023/04/18 12:24:27;;;;;;;16.07;14.50;;;19.20;99.90;;;;;;5078539;28;20465;-62
2023/04/18 12:26:56;;;;;;;15.47;14.07;;;19.50;99.90;;;;;;5077611;28;20485;-61
2023/04/18 12:29:24;;;;;;;15.53;14.07;;;18.50;99.90;;;;;;5077993;28;20461;-61
2023/04/18 12:31:51;;;;;;;14.37;12.90;;;18.90;99.90;;;;;;5078097;28;20461;-61
2023/04/18 12:34:19;;;;;;;15.57;14.20;;;19.00;99.90;;;;;;5078315;28;20507;-60
2023/04/18 12:36:47;;;;;;;15.70;14.30;;;18.80;99.90;;;;;;5077599;28;20963;-57
2023/04/18 12:39:16;;;;;;;15.00;13.57;;;18.40;99.90;;;;;;5077751;28;20747;-61
2023/04/18 12:41:44;;;;;;;15.87;14.37;;;18.40;99.90;;;;;;5077762;28;20471;-60
2023/04/18 12:44:11;;;;;;;15.53;14.03;;;18.60;99.90;;;;;;5075959;28;20465;-59